Bardwell, Texas
Current Conditions -  °F | °C
As of 11:15 PM on Saturday 25 Oct 2014 (Local Time) from KJWY Reporting Station
Clear Clear  
Wind Chill: 69°   Ceiling: Unl
Heat Index: 69°   Visibility: 10mi
Dew Point: 60°   Wind: 5mph
Humidity: 73%   Direction: 160°SSE
Pressure: 30.08"   Gusts: NA
Location:  32.27°N, 96.7°W
Report Text: KJWY 260415Z AUTO 16004KT 10SM CLR 21/16 A3008 RMK AO2 T02080157
Loading
Personal Weather Stations






























Interactive Weather Map
Tropical Storm Tracking
New forecast layout! Learn more

10-Day Weather Forecast

Advertisements
Track Severe Weather on mobile